createdAt,value
2023-01-17T00:00:32.970Z,84.00
2023-01-17T00:04:37.697Z,87.00
2023-01-17T00:08:22.350Z,81.90
2023-01-17T00:11:49.409Z,84.00
2023-01-17T00:15:19.698Z,86.70
2023-01-17T00:19:07.735Z,78.10
2023-01-17T00:22:49.000Z,71.50
2023-01-17T00:26:19.380Z,82.20
2023-01-17T00:29:46.344Z,73.00
2023-01-17T00:33:12.460Z,70.80
2023-01-17T00:36:38.192Z,73.60
2023-01-17T00:40:04.825Z,72.80
2023-01-17T00:43:50.213Z,74.40
2023-01-17T00:47:35.042Z,69.00
2023-01-17T00:51:21.504Z,66.20
2023-01-17T00:55:06.281Z,65.30
2023-01-17T00:58:51.257Z,69.50
2023-01-17T01:02:36.465Z,68.40
2023-01-17T01:06:25.355Z,70.60
2023-01-17T01:10:09.974Z,74.40
2023-01-17T01:13:55.381Z,77.80
2023-01-17T01:17:39.767Z,64.70
2023-01-17T01:21:25.423Z,67.60
2023-01-17T01:25:10.201Z,69.90
2023-01-17T01:28:54.867Z,68.60
2023-01-17T01:32:39.537Z,71.10
2023-01-17T01:36:10.525Z,70.00
2023-01-17T01:39:37.464Z,62.40
2023-01-17T01:43:06.150Z,68.20
2023-01-17T01:46:38.042Z,74.50
2023-01-17T01:50:08.490Z,76.30
2023-01-17T01:53:39.743Z,71.00
2023-01-17T01:57:09.586Z,79.60
2023-01-17T02:00:40.953Z,72.60
2023-01-17T02:04:10.191Z,71.00
2023-01-17T02:07:43.045Z,77.10
2023-01-17T02:11:09.926Z,76.70
2023-01-17T02:14:36.875Z,82.70
2023-01-17T02:18:17.730Z,76.70
2023-01-17T02:21:54.353Z,80.70
2023-01-17T02:25:46.218Z,80.00
2023-01-17T02:29:40.897Z,79.00
2023-01-17T02:33:22.414Z,89.50
2023-01-17T02:36:55.868Z,85.80
2023-01-17T02:40:28.155Z,84.00
2023-01-17T02:43:55.191Z,88.00
2023-01-17T02:47:27.912Z,87.30
2023-01-17T02:51:21.862Z,84.10
2023-01-17T02:55:08.905Z,80.90
2023-01-17T02:58:52.436Z,79.60
2023-01-17T03:02:29.340Z,82.60
2023-01-17T03:06:00.744Z,81.30
2023-01-17T03:09:30.100Z,81.70
2023-01-17T03:13:00.945Z,81.10
2023-01-17T03:16:30.282Z,85.60
2023-01-17T03:19:57.180Z,77.10
2023-01-17T03:23:24.108Z,82.40
2023-01-17T03:26:51.275Z,78.50
2023-01-17T03:30:20.441Z,82.80
2023-01-17T03:33:48.081Z,87.40
2023-01-17T03:37:15.274Z,82.90
2023-01-17T03:40:42.631Z,73.70
2023-01-17T03:44:10.006Z,87.60
2023-01-17T03:47:38.591Z,85.00
2023-01-17T03:51:05.839Z,75.60
2023-01-17T03:54:32.743Z,78.80
2023-01-17T03:57:59.664Z,69.90
2023-01-17T04:01:26.952Z,65.90
2023-01-17T04:04:54.056Z,72.80
2023-01-17T04:08:21.045Z,74.50
2023-01-17T04:11:51.002Z,68.70
2023-01-17T04:15:18.728Z,66.20
2023-01-17T04:18:45.900Z,67.00
2023-01-17T04:22:13.361Z,69.00
2023-01-17T04:25:40.380Z,71.50
2023-01-17T04:29:07.647Z,64.80
2023-01-17T04:32:34.605Z,70.70
2023-01-17T04:36:01.793Z,64.00
2023-01-17T04:39:28.808Z,65.60
2023-01-17T04:42:55.739Z,52.70
2023-01-17T04:46:22.731Z,56.20
2023-01-17T04:49:49.877Z,61.20
2023-01-17T04:53:16.774Z,57.20
2023-01-17T04:56:44.249Z,53.30
2023-01-17T05:00:13.573Z,45.40
2023-01-17T05:03:40.746Z,51.90
2023-01-17T05:07:08.169Z,45.70
2023-01-17T05:10:35.489Z,43.90
2023-01-17T05:14:02.350Z,44.80
2023-01-17T05:17:29.423Z,42.50
2023-01-17T05:21:01.693Z,40.80
2023-01-17T05:24:28.672Z,37.90
2023-01-17T05:27:56.520Z,33.70
2023-01-17T05:31:23.525Z,38.30
2023-01-17T05:34:51.109Z,37.40
2023-01-17T05:38:18.379Z,32.20
2023-01-17T05:41:45.322Z,32.90
2023-01-17T05:45:16.808Z,34.20
2023-01-17T05:48:43.758Z,32.10
2023-01-17T05:52:11.043Z,32.90
2023-01-17T05:55:38.755Z,33.00
2023-01-17T05:59:05.732Z,23.50
2023-01-17T06:02:32.640Z,26.60
2023-01-17T06:05:59.627Z,29.50
2023-01-17T06:09:26.739Z,24.50
2023-01-17T06:13:01.151Z,25.50
2023-01-17T06:16:28.140Z,24.10
2023-01-17T06:19:55.052Z,24.00
2023-01-17T06:23:22.324Z,24.70
2023-01-17T06:26:49.398Z,21.00
2023-01-17T06:30:17.703Z,19.40
2023-01-17T06:33:44.668Z,17.50
2023-01-17T06:37:11.755Z,16.70
2023-01-17T06:40:38.941Z,16.60
2023-01-17T06:44:07.565Z,17.00
2023-01-17T06:47:38.605Z,18.10
2023-01-17T06:51:05.621Z,14.80
2023-01-17T06:54:32.689Z,16.10
2023-01-17T06:58:00.697Z,12.20
2023-01-17T07:01:27.845Z,13.90
2023-01-17T07:04:54.983Z,14.60
2023-01-17T07:08:23.121Z,14.60
2023-01-17T07:11:51.833Z,13.80
2023-01-17T07:15:19.151Z,13.80
2023-01-17T07:18:46.142Z,14.50
2023-01-17T07:22:13.416Z,12.90
2023-01-17T07:25:40.428Z,10.90
2023-01-17T07:29:08.066Z,16.70
2023-01-17T07:32:35.365Z,15.70
2023-01-17T07:36:04.287Z,13.70
2023-01-17T07:39:31.173Z,12.30
2023-01-17T07:43:03.165Z,16.90
2023-01-17T07:46:31.790Z,15.50
2023-01-17T07:49:58.803Z,14.00
2023-01-17T07:53:27.553Z,15.60
2023-01-17T07:56:54.574Z,12.70
2023-01-17T08:00:26.284Z,15.00
2023-01-17T08:03:54.891Z,16.30
2023-01-17T08:07:21.916Z,17.10
2023-01-17T08:10:49.545Z,15.50
2023-01-17T08:14:16.498Z,14.10
2023-01-17T08:17:48.897Z,9.70
2023-01-17T08:21:17.936Z,12.50
2023-01-17T08:24:44.834Z,11.60
2023-01-17T08:28:11.955Z,10.90
2023-01-17T08:31:39.099Z,13.30
2023-01-17T08:35:06.876Z,9.10
2023-01-17T08:38:33.768Z,12.00
2023-01-17T08:42:00.794Z,11.70
2023-01-17T08:45:28.230Z,12.20
2023-01-17T08:48:59.012Z,11.50
2023-01-17T08:52:26.047Z,11.20
2023-01-17T08:56:00.626Z,13.30
2023-01-17T08:59:27.606Z,9.60
2023-01-17T09:02:55.331Z,10.90
2023-01-17T09:06:22.686Z,10.60
2023-01-17T09:09:49.917Z,8.60
2023-01-17T09:13:16.924Z,11.50
2023-01-17T09:16:43.958Z,10.60
2023-01-17T09:20:13.546Z,10.70
2023-01-17T09:23:40.669Z,8.70
2023-01-17T09:27:07.887Z,10.40
2023-01-17T09:30:35.184Z,11.10
2023-01-17T09:34:02.273Z,9.30
2023-01-17T09:37:30.535Z,9.40
2023-01-17T09:40:57.760Z,9.80
2023-01-17T09:44:32.036Z,7.10
2023-01-17T09:48:00.821Z,8.40
2023-01-17T09:51:27.986Z,8.90
2023-01-17T09:54:55.208Z,8.20
2023-01-17T09:58:25.735Z,6.30
2023-01-17T10:02:03.956Z,7.90
2023-01-17T10:05:46.696Z,7.00
2023-01-17T10:09:31.655Z,6.10
2023-01-17T10:13:06.344Z,6.60
2023-01-17T10:16:44.759Z,9.90
2023-01-17T10:20:34.290Z,8.80
2023-01-17T10:24:32.113Z,9.20
2023-01-17T10:28:01.444Z,6.80
2023-01-17T10:31:31.657Z,7.30
2023-01-17T10:35:04.358Z,7.50
2023-01-17T10:38:35.896Z,6.70
2023-01-17T10:42:08.536Z,6.10
2023-01-17T10:45:41.443Z,8.30
2023-01-17T10:49:15.805Z,6.10
2023-01-17T10:52:50.700Z,8.20
2023-01-17T10:56:24.645Z,8.30
2023-01-17T10:59:52.905Z,7.30
2023-01-17T11:03:21.965Z,4.90
2023-01-17T11:06:58.116Z,4.90
2023-01-17T11:10:41.026Z,4.70
2023-01-17T11:14:16.785Z,5.30
2023-01-17T11:17:52.949Z,6.20
2023-01-17T11:21:23.325Z,5.50
2023-01-17T11:24:56.694Z,5.90
2023-01-17T11:28:30.513Z,6.60
2023-01-17T11:31:58.712Z,5.60
2023-01-17T11:35:27.369Z,5.60
2023-01-17T11:39:04.091Z,6.40
2023-01-17T11:42:36.839Z,9.60
2023-01-17T11:46:15.965Z,5.50
2023-01-17T11:49:45.519Z,7.40
2023-01-17T11:53:22.512Z,7.50
2023-01-17T11:56:51.858Z,6.40
2023-01-17T12:00:25.727Z,5.70
2023-01-17T12:04:11.788Z,7.10
2023-01-17T12:07:49.080Z,6.90
2023-01-17T12:11:23.944Z,7.00
2023-01-17T12:15:03.797Z,5.60
2023-01-17T12:18:45.195Z,7.60
2023-01-17T12:22:33.774Z,4.20
2023-01-17T12:26:12.055Z,6.70
2023-01-17T12:29:50.584Z,8.00
2023-01-17T12:33:26.378Z,6.40
2023-01-17T12:37:00.413Z,5.90
2023-01-17T12:40:33.881Z,4.90
2023-01-17T12:44:02.282Z,8.50
2023-01-17T12:47:30.364Z,8.30
2023-01-17T12:51:03.538Z,6.80
2023-01-17T12:54:37.070Z,3.70
2023-01-17T12:58:07.146Z,5.00
2023-01-17T13:01:39.930Z,4.20
2023-01-17T13:05:15.244Z,5.00
2023-01-17T13:08:48.354Z,6.80
2023-01-17T13:12:18.912Z,4.60
2023-01-17T13:15:46.122Z,4.10
2023-01-17T13:19:19.144Z,10.70
2023-01-17T13:22:47.439Z,6.00
2023-01-17T13:26:28.246Z,6.00
2023-01-17T13:30:11.499Z,4.60
2023-01-17T13:33:58.207Z,8.10
2023-01-17T13:37:58.767Z,7.60
2023-01-17T13:41:45.375Z,7.50
2023-01-17T13:45:21.651Z,10.90
2023-01-17T13:48:49.274Z,6.50
2023-01-17T13:52:33.526Z,9.50
2023-01-17T13:56:11.986Z,5.70
2023-01-17T13:59:39.138Z,3.80
2023-01-17T14:03:06.190Z,4.30
2023-01-17T14:06:38.714Z,7.60
2023-01-17T14:10:25.820Z,4.60
2023-01-17T14:13:52.871Z,6.70
2023-01-17T14:17:59.051Z,5.60
2023-01-17T14:21:28.444Z,7.50
2023-01-17T14:25:14.958Z,8.10
2023-01-17T14:28:42.954Z,6.70
2023-01-17T14:32:14.189Z,6.90
2023-01-17T14:35:50.806Z,5.40
2023-01-17T14:39:25.197Z,4.30
2023-01-17T14:43:03.916Z,6.40
2023-01-17T14:46:33.389Z,8.20
2023-01-17T14:50:20.307Z,8.30
2023-01-17T14:53:56.560Z,8.50
2023-01-17T14:57:29.407Z,6.90
2023-01-17T15:01:01.249Z,6.70
2023-01-17T15:04:30.271Z,7.10
2023-01-17T15:07:59.343Z,7.30
2023-01-17T15:11:30.146Z,7.30
2023-01-17T15:14:58.756Z,7.30
2023-01-17T15:18:29.631Z,8.00
2023-01-17T15:21:57.204Z,12.60
2023-01-17T15:25:24.760Z,15.50
2023-01-17T15:28:53.284Z,13.40
2023-01-17T15:32:24.005Z,18.20
2023-01-17T15:35:59.386Z,14.50
2023-01-17T15:39:30.312Z,14.80
2023-01-17T15:43:01.101Z,13.90
2023-01-17T15:46:32.321Z,14.90
2023-01-17T15:49:59.981Z,14.80
2023-01-17T15:53:35.076Z,16.60
2023-01-17T15:57:18.172Z,15.80
2023-01-17T16:00:47.178Z,17.20
2023-01-17T16:04:29.976Z,14.60
2023-01-17T16:07:59.160Z,15.20
2023-01-17T16:11:26.409Z,14.20
2023-01-17T16:15:10.810Z,17.10
2023-01-17T16:18:40.483Z,12.10
2023-01-17T16:22:07.434Z,11.80
2023-01-17T16:25:34.795Z,9.00
2023-01-17T16:29:01.824Z,9.20
2023-01-17T16:32:29.934Z,8.50
2023-01-17T16:35:58.271Z,9.00
2023-01-17T16:39:25.724Z,7.50
2023-01-17T16:42:53.057Z,11.80
2023-01-17T16:46:23.770Z,10.90
2023-01-17T16:49:51.367Z,12.70
2023-01-17T16:53:23.336Z,13.40
2023-01-17T16:56:52.015Z,12.90
2023-01-17T17:00:21.100Z,13.40
2023-01-17T17:03:49.266Z,14.60
2023-01-17T17:07:16.480Z,18.20
2023-01-17T17:10:43.683Z,24.20
2023-01-17T17:14:11.034Z,23.60
2023-01-17T17:17:40.215Z,24.60
2023-01-17T17:21:07.489Z,20.80
2023-01-17T17:24:35.279Z,23.10
2023-01-17T17:28:02.419Z,28.20
2023-01-17T17:31:29.628Z,32.50
2023-01-17T17:34:56.834Z,25.00
2023-01-17T17:38:23.995Z,25.30
2023-01-17T17:41:51.094Z,29.40
2023-01-17T17:45:18.417Z,35.90
2023-01-17T17:48:45.681Z,43.40
2023-01-17T17:52:13.247Z,36.60
2023-01-17T17:55:42.455Z,39.30
2023-01-17T17:59:12.629Z,24.80
2023-01-17T18:02:39.898Z,40.80
2023-01-17T18:06:10.931Z,35.20
2023-01-17T18:09:39.498Z,37.80
2023-01-17T18:13:07.068Z,45.30
2023-01-17T18:16:37.652Z,46.00
2023-01-17T18:20:07.650Z,52.30
2023-01-17T18:23:36.073Z,78.50
2023-01-17T18:27:03.582Z,63.00
2023-01-17T18:30:35.069Z,73.30
2023-01-17T18:34:08.211Z,88.00
2023-01-17T18:37:35.813Z,78.30
2023-01-17T18:41:07.077Z,79.70
2023-01-17T18:44:34.167Z,95.60
2023-01-17T18:48:02.556Z,106.20
2023-01-17T18:51:32.905Z,87.30
2023-01-17T18:55:00.635Z,80.10
2023-01-17T18:58:29.331Z,80.40
2023-01-17T19:01:56.377Z,87.60
2023-01-17T19:05:24.715Z,114.80
2023-01-17T19:08:52.921Z,105.60
2023-01-17T19:12:20.786Z,120.70
2023-01-17T19:15:48.614Z,119.90
2023-01-17T19:19:17.338Z,112.10
2023-01-17T19:22:44.874Z,142.80
2023-01-17T19:26:13.225Z,145.40
2023-01-17T19:29:40.408Z,170.70
2023-01-17T19:33:07.416Z,149.70
2023-01-17T19:36:37.510Z,142.50
2023-01-17T19:40:05.125Z,153.50
2023-01-17T19:43:32.677Z,243.90
2023-01-17T19:46:59.811Z,592.60
2023-01-17T19:50:26.748Z,445.60
2023-01-17T19:53:54.866Z,428.10
2023-01-17T19:57:24.321Z,389.10
2023-01-17T20:04:18.115Z,310.60
2023-01-17T20:07:45.195Z,328.10
2023-01-17T20:11:14.729Z,321.90
2023-01-17T20:18:07.368Z,391.30
2023-01-17T20:21:34.781Z,434.30
2023-01-17T20:25:02.378Z,381.50
2023-01-17T20:28:31.721Z,368.50
2023-01-17T20:31:58.953Z,371.00
2023-01-17T20:35:28.579Z,365.60
2023-01-17T20:38:57.152Z,353.80
2023-01-17T20:42:24.250Z,299.30
2023-01-17T20:45:59.041Z,329.50
2023-01-17T20:49:26.785Z,287.50
2023-01-17T20:52:53.890Z,285.00
2023-01-17T20:56:21.136Z,233.60
2023-01-17T20:59:50.128Z,220.80
2023-01-17T21:03:18.100Z,215.10
2023-01-17T21:06:45.915Z,197.40
2023-01-17T21:10:14.131Z,203.80
2023-01-17T21:13:41.720Z,191.20
2023-01-17T21:17:09.367Z,184.10
2023-01-17T21:20:38.361Z,194.20
2023-01-17T21:24:06.086Z,172.00
2023-01-17T21:27:33.427Z,168.80
2023-01-17T21:31:01.129Z,167.70
2023-01-17T21:34:32.240Z,169.60
2023-01-17T21:37:59.544Z,177.90
2023-01-17T21:41:29.014Z,156.10
2023-01-17T21:48:23.279Z,166.20
2023-01-17T21:52:08.061Z,163.10
2023-01-17T21:55:52.858Z,164.10
2023-01-17T21:59:20.149Z,153.40
2023-01-17T22:02:48.845Z,149.30
2023-01-17T22:06:16.023Z,212.70
2023-01-17T22:09:43.127Z,173.00
2023-01-17T22:13:10.488Z,152.00
2023-01-17T22:16:37.559Z,229.60
2023-01-17T22:20:05.125Z,198.50
2023-01-17T22:23:32.156Z,170.00
2023-01-17T22:26:59.100Z,172.00
2023-01-17T22:30:26.115Z,155.30
2023-01-17T22:33:57.145Z,166.80
2023-01-17T22:37:24.088Z,182.30
2023-01-17T22:40:51.318Z,217.40
2023-01-17T22:44:18.321Z,213.10
2023-01-17T22:47:45.424Z,242.20
2023-01-17T22:51:14.310Z,281.70
2023-01-17T22:54:41.235Z,284.90
2023-01-17T22:58:08.223Z,335.60
2023-01-17T23:01:35.414Z,283.10
2023-01-17T23:05:02.359Z,279.00
2023-01-17T23:08:29.319Z,294.00
2023-01-17T23:11:56.513Z,277.90
2023-01-17T23:15:41.151Z,272.50
2023-01-17T23:19:24.455Z,279.60
2023-01-17T23:22:51.932Z,291.90
2023-01-17T23:26:19.060Z,293.10
2023-01-17T23:29:46.131Z,323.90
2023-01-17T23:33:15.386Z,394.20
2023-01-17T23:36:42.275Z,297.00
2023-01-17T23:40:11.692Z,253.70
2023-01-17T23:47:04.764Z,231.20
2023-01-17T23:50:32.370Z,210.00
2023-01-17T23:54:05.417Z,262.90
2023-01-17T23:57:32.654Z,232.60
